Time;durP1;ratioP1;P1;durP2;ratioP2;P2;SDS_P1;SDS_P2;PMS_P1;PMS_P2;Temp;Humidity;BMP_temperature;BMP_pressure;BME280_temperature;BME280_humidity;BME280_pressure;Samples;Min_cycle;Max_cycle;Signal;HPM_P1;HPM_P2
2022/08/21 00:00:14;;;;;;;4.63;3.20;;;25.40;55.40;;;;;;4949171;28;20203;-46
2022/08/21 00:02:53;;;;;;;3.83;2.67;;;25.50;55.70;;;;;;4947648;28;20200;-46
2022/08/21 00:05:19;;;;;;;4.20;3.27;;;25.40;55.70;;;;;;4946147;28;20443;-46
2022/08/21 00:07:45;;;;;;;3.70;3.37;;;25.40;55.30;;;;;;4943865;28;20475;-44
2022/08/21 00:10:11;;;;;;;3.03;2.47;;;25.40;55.30;;;;;;4946377;28;20456;-45
2022/08/21 00:12:37;;;;;;;3.03;2.83;;;25.40;55.50;;;;;;4946189;28;20227;-46
2022/08/21 00:15:05;;;;;;;3.67;3.37;;;25.40;55.40;;;;;;4943424;28;20456;-44
2022/08/21 00:17:30;;;;;;;3.60;3.20;;;25.40;55.10;;;;;;4945964;29;20219;-46
2022/08/21 00:19:56;;;;;;;4.63;2.77;;;25.40;55.50;;;;;;4946137;28;20483;-47
2022/08/21 00:22:22;;;;;;;3.70;2.80;;;25.40;54.50;;;;;;4948351;28;20222;-46
2022/08/21 00:24:47;;;;;;;3.50;2.70;;;25.40;54.90;;;;;;4949550;28;20200;-47
2022/08/21 00:27:13;;;;;;;3.23;3.00;;;25.40;55.10;;;;;;4950152;28;20235;-47
2022/08/21 00:29:38;;;;;;;3.43;3.07;;;25.40;54.20;;;;;;4948337;28;20256;-45
2022/08/21 00:32:05;;;;;;;4.70;2.93;;;25.40;53.70;;;;;;4946063;28;20940;-48
2022/08/21 00:34:30;;;;;;;3.43;3.23;;;25.30;53.60;;;;;;4940118;28;20614;-46
2022/08/21 00:36:56;;;;;;;3.23;3.03;;;25.20;53.80;;;;;;4942793;28;20436;-47
2022/08/21 00:39:21;;;;;;;7.60;3.00;;;25.10;54.10;;;;;;4948509;28;20223;-47
2022/08/21 00:41:47;;;;;;;2.90;2.70;;;25.00;55.00;;;;;;4950726;28;20206;-45
2022/08/21 00:44:14;;;;;;;3.30;3.00;;;24.90;55.00;;;;;;4945106;28;20946;-47
2022/08/21 00:46:41;;;;;;;3.33;2.53;;;24.90;55.00;;;;;;4949716;28;20652;-47
2022/08/21 00:49:08;;;;;;;2.97;2.77;;;24.90;54.90;;;;;;4947295;28;20450;-46
2022/08/21 00:51:47;;;;;;;3.40;3.13;;;24.90;54.70;;;;;;4945196;28;20923;-46
2022/08/21 00:54:14;;;;;;;3.13;2.93;;;24.90;55.10;;;;;;4942884;28;20451;-45
2022/08/21 00:56:40;;;;;;;3.57;2.80;;;24.90;54.70;;;;;;4949821;28;20750;-47
2022/08/21 00:59:06;;;;;;;3.67;3.30;;;24.90;54.50;;;;;;4948715;28;20491;-45
2022/08/21 01:01:33;;;;;;;3.70;3.20;;;24.90;54.50;;;;;;4950799;28;20455;-47
2022/08/21 01:03:59;;;;;;;3.40;3.10;;;24.80;54.40;;;;;;4947833;28;20451;-46
2022/08/21 01:06:24;;;;;;;2.40;2.20;;;24.70;54.50;;;;;;4947253;28;21049;-46
2022/08/21 01:08:50;;;;;;;4.90;3.17;;;24.60;55.70;;;;;;4952072;28;20199;-47
2022/08/21 01:11:16;;;;;;;3.10;2.90;;;24.60;55.40;;;;;;4953526;29;20286;-45
2022/08/21 01:13:46;;;;;;;2.63;2.40;;;24.50;55.40;;;;;;4945951;28;20228;-46
2022/08/21 01:16:16;;;;;;;2.57;2.37;;;24.50;55.70;;;;;;4946526;28;20462;-46
2022/08/21 01:18:42;;;;;;;2.60;2.40;;;24.50;55.60;;;;;;4946165;28;20505;-47
2022/08/21 01:21:17;;;;;;;2.40;2.30;;;24.50;55.30;;;;;;4953626;28;20467;-50
2022/08/21 01:23:47;;;;;;;2.60;2.40;;;24.50;55.20;;;;;;4950348;28;20521;-46
2022/08/21 01:26:15;;;;;;;2.77;2.57;;;24.50;55.10;;;;;;4949146;28;20979;-47
2022/08/21 01:28:56;;;;;;;3.13;2.50;;;24.40;54.80;;;;;;4952375;28;20462;-46
2022/08/21 01:31:24;;;;;;;3.00;2.40;;;24.30;54.80;;;;;;4950415;28;20538;-46
2022/08/21 01:33:50;;;;;;;2.50;2.30;;;24.20;55.50;;;;;;4949135;28;20474;-49
2022/08/21 01:36:16;;;;;;;3.20;2.90;;;24.00;55.30;;;;;;4951513;28;20443;-46
2022/08/21 01:38:41;;;;;;;3.13;2.87;;;23.90;55.50;;;;;;4950883;28;20594;-49
2022/08/21 01:41:07;;;;;;;2.87;2.67;;;23.80;55.90;;;;;;4950985;28;20192;-46
2022/08/21 01:43:33;;;;;;;3.40;2.80;;;23.80;56.00;;;;;;4953911;28;20229;-46
2022/08/21 01:45:59;;;;;;;2.93;2.70;;;23.70;56.10;;;;;;4948592;28;20207;-49
2022/08/21 01:48:25;;;;;;;3.03;2.83;;;23.60;56.20;;;;;;4949995;28;20486;-46
2022/08/21 01:50:50;;;;;;;2.83;2.63;;;23.50;56.30;;;;;;4952364;28;20223;-47
2022/08/21 01:53:16;;;;;;;2.67;2.57;;;23.40;56.90;;;;;;4951243;28;20192;-48
2022/08/21 01:55:43;;;;;;;2.67;2.47;;;23.40;56.70;;;;;;4952576;29;20204;-45
2022/08/21 01:58:09;;;;;;;2.80;2.30;;;23.40;56.70;;;;;;4947685;28;20216;-47
2022/08/21 02:00:35;;;;;;;3.07;2.80;;;23.50;57.20;;;;;;4942681;29;20991;-45
2022/08/21 02:03:00;;;;;;;3.00;2.03;;;23.50;57.20;;;;;;4942415;28;20666;-46
2022/08/21 02:05:26;;;;;;;3.83;3.43;;;23.50;56.80;;;;;;4952190;28;20251;-45
2022/08/21 02:07:53;;;;;;;4.50;2.67;;;23.60;56.70;;;;;;4942937;28;20281;-46
2022/08/21 02:10:24;;;;;;;5.27;3.20;;;23.60;57.00;;;;;;4953578;28;21283;-45
2022/08/21 02:12:49;;;;;;;4.23;3.03;;;23.60;57.10;;;;;;4952908;29;22058;-46
2022/08/21 02:15:15;;;;;;;3.00;2.80;;;23.60;57.10;;;;;;4949825;28;20535;-47
2022/08/21 02:17:45;;;;;;;13.50;3.23;;;23.50;56.70;;;;;;4946165;28;20341;-46
2022/08/21 02:20:17;;;;;;;3.13;2.83;;;23.50;56.90;;;;;;4952281;29;20947;-46
2022/08/21 02:22:42;;;;;;;2.20;2.10;;;23.50;57.30;;;;;;4953391;28;20462;-46
2022/08/21 02:25:08;;;;;;;2.40;2.30;;;23.50;57.60;;;;;;4953156;28;20447;-45
2022/08/21 02:27:42;;;;;;;2.80;2.60;;;23.30;56.80;;;;;;4949784;28;20199;-46
2022/08/21 02:30:12;;;;;;;2.80;2.10;;;23.20;57.70;;;;;;4944860;28;20483;-46
2022/08/21 02:32:38;;;;;;;5.97;3.13;;;23.30;57.50;;;;;;4952897;28;20436;-47
2022/08/21 02:35:04;;;;;;;3.30;3.00;;;23.40;57.80;;;;;;4951297;28;20783;-46
2022/08/21 02:37:29;;;;;;;3.03;2.83;;;23.40;57.60;;;;;;4951096;28;20196;-45
2022/08/21 02:39:55;;;;;;;4.97;2.83;;;23.40;57.60;;;;;;4950483;28;20503;-46
2022/08/21 02:42:21;;;;;;;3.43;3.13;;;23.50;57.70;;;;;;4949500;28;20222;-45
2022/08/21 02:44:46;;;;;;;4.33;2.80;;;23.60;57.40;;;;;;4951245;28;20192;-47
2022/08/21 02:47:13;;;;;;;9.90;3.13;;;23.60;57.60;;;;;;4952028;28;20204;-46
2022/08/21 02:49:38;;;;;;;2.67;2.50;;;23.60;57.10;;;;;;4948590;28;20659;-46
2022/08/21 02:52:05;;;;;;;4.50;2.73;;;23.60;56.80;;;;;;4952954;28;20506;-47
2022/08/21 02:54:31;;;;;;;2.50;2.23;;;23.60;57.00;;;;;;4952083;28;20656;-48
2022/08/21 02:56:57;;;;;;;2.47;2.27;;;23.60;57.00;;;;;;4951435;28;20444;-47
2022/08/21 02:59:23;;;;;;;1.90;1.80;;;23.60;57.20;;;;;;4951609;28;20494;-46
2022/08/21 03:01:49;;;;;;;3.80;2.90;;;23.60;57.30;;;;;;4951089;28;20851;-46
2022/08/21 03:04:14;;;;;;;3.30;3.00;;;23.60;57.10;;;;;;4952924;28;20276;-47
2022/08/21 03:06:40;;;;;;;3.77;2.70;;;23.60;57.50;;;;;;4951040;28;20215;-45
2022/08/21 03:09:05;;;;;;;2.33;2.13;;;23.60;57.20;;;;;;4949044;28;20207;-46
2022/08/21 03:11:31;;;;;;;2.93;2.73;;;23.70;57.20;;;;;;4945031;28;20235;-47
2022/08/21 03:13:57;;;;;;;6.93;2.90;;;23.70;57.00;;;;;;4941731;28;20240;-47
2022/08/21 03:16:22;;;;;;;11.27;2.70;;;23.70;56.30;;;;;;4950592;28;20278;-47
2022/08/21 03:18:48;;;;;;;3.13;2.93;;;23.20;57.20;;;;;;4947938;28;20226;-49
2022/08/21 03:21:14;;;;;;;2.50;2.30;;;23.00;58.60;;;;;;4950102;28;20199;-47
2022/08/21 03:23:41;;;;;;;2.77;2.30;;;23.10;58.90;;;;;;4949388;28;20220;-47
2022/08/21 03:26:08;;;;;;;2.20;2.10;;;23.20;58.60;;;;;;4950868;29;20203;-46
2022/08/21 03:28:33;;;;;;;2.30;2.20;;;23.40;58.30;;;;;;4952099;28;20447;-47
2022/08/21 03:30:59;;;;;;;3.90;3.17;;;23.50;57.80;;;;;;4948864;28;20444;-46
2022/08/21 03:33:25;;;;;;;3.90;2.50;;;23.60;58.00;;;;;;4948369;29;20200;-48
2022/08/21 03:36:19;;;;;;;2.80;2.60;;;23.60;57.10;;;;;;4946847;28;20203;-49
2022/08/21 03:38:45;;;;;;;3.10;2.90;;;23.70;56.80;;;;;;4931826;28;20243;-48
2022/08/21 03:41:11;;;;;;;2.40;2.30;;;23.60;56.80;;;;;;4949710;28;20444;-47
2022/08/21 03:43:38;;;;;;;3.00;2.80;;;23.70;56.70;;;;;;4949813;28;20231;-45
2022/08/21 03:46:04;;;;;;;3.03;2.30;;;23.70;56.70;;;;;;4942231;28;20279;-48
2022/08/21 03:48:31;;;;;;;2.53;2.37;;;23.70;56.20;;;;;;4945326;28;20499;-46
2022/08/21 03:50:57;;;;;;;2.67;2.50;;;23.80;56.40;;;;;;4946544;28;20440;-45
2022/08/21 03:53:22;;;;;;;2.33;2.23;;;23.80;56.10;;;;;;4949816;28;20963;-49
2022/08/21 03:55:50;;;;;;;2.90;2.70;;;23.80;56.10;;;;;;4938045;28;20196;-48
2022/08/21 03:58:18;;;;;;;2.50;2.30;;;23.80;55.70;;;;;;4950038;28;20237;-47
2022/08/21 04:00:49;;;;;;;2.80;2.60;;;23.80;55.40;;;;;;4949100;28;20440;-46
2022/08/21 04:03:15;;;;;;;2.70;2.50;;;23.80;55.20;;;;;;4949879;28;20448;-47
2022/08/21 04:05:41;;;;;;;2.50;2.30;;;23.70;54.80;;;;;;4944465;28;21195;-46
2022/08/21 04:08:07;;;;;;;2.33;2.23;;;23.60;54.80;;;;;;4947872;28;20451;-50
2022/08/21 04:10:37;;;;;;;2.60;2.40;;;23.50;54.70;;;;;;4945755;28;20542;-49
2022/08/21 04:13:04;;;;;;;2.27;2.17;;;23.40;55.30;;;;;;4948623;28;21134;-46
2022/08/21 04:15:30;;;;;;;2.30;2.10;;;23.30;55.40;;;;;;4943044;28;20443;-46
2022/08/21 04:17:56;;;;;;;2.00;1.90;;;23.30;56.10;;;;;;4949533;28;20506;-47
2022/08/21 04:20:22;;;;;;;1.70;1.60;;;23.20;55.80;;;;;;4948585;28;20483;-46
2022/08/21 04:22:50;;;;;;;2.23;2.13;;;23.20;56.00;;;;;;4947106;28;20689;-47
2022/08/21 04:25:17;;;;;;;1.97;1.87;;;23.20;55.50;;;;;;4948322;28;20538;-47
2022/08/21 04:27:42;;;;;;;2.50;2.30;;;23.20;55.30;;;;;;4950005;28;20463;-48
2022/08/21 04:30:09;;;;;;;2.30;2.10;;;23.10;55.90;;;;;;4950502;28;20443;-48
2022/08/21 04:32:37;;;;;;;2.43;2.03;;;23.20;56.70;;;;;;4943850;28;20206;-46
2022/08/21 04:35:06;;;;;;;1.70;1.60;;;23.10;56.10;;;;;;4940712;28;20445;-46
2022/08/21 04:37:32;;;;;;;2.20;2.00;;;23.20;56.40;;;;;;4948572;29;20543;-46
2022/08/21 04:39:58;;;;;;;2.03;1.80;;;23.30;56.00;;;;;;4943228;28;20570;-50
2022/08/21 04:42:27;;;;;;;2.47;2.00;;;23.40;55.60;;;;;;4949984;28;20227;-46
2022/08/21 04:44:54;;;;;;;2.73;2.53;;;23.40;55.10;;;;;;4950263;28;20211;-45
2022/08/21 04:47:21;;;;;;;1.90;1.80;;;23.50;55.10;;;;;;4950493;28;20444;-50
2022/08/21 04:49:46;;;;;;;2.00;1.90;;;23.50;54.80;;;;;;4947988;28;20447;-45
2022/08/21 04:52:15;;;;;;;3.83;2.30;;;23.60;54.70;;;;;;4948024;28;20452;-46
2022/08/21 04:54:43;;;;;;;2.30;2.20;;;23.60;54.70;;;;;;4948496;28;20188;-49
2022/08/21 04:57:10;;;;;;;2.20;2.10;;;23.60;54.60;;;;;;4950378;28;20467;-46
2022/08/21 04:59:40;;;;;;;3.67;2.40;;;23.60;54.70;;;;;;4948020;28;20491;-50
2022/08/21 05:02:08;;;;;;;2.10;2.00;;;23.60;54.90;;;;;;4942519;28;20444;-47
2022/08/21 05:04:36;;;;;;;3.13;1.77;;;23.60;54.90;;;;;;4942958;28;20463;-51
2022/08/21 05:07:05;;;;;;;3.50;1.93;;;23.60;54.80;;;;;;4948954;28;20962;-46
2022/08/21 05:09:32;;;;;;;2.10;2.00;;;23.70;54.90;;;;;;4949727;28;20494;-46
2022/08/21 05:11:58;;;;;;;1.73;1.63;;;23.70;54.70;;;;;;4933084;29;20823;-50
2022/08/21 05:14:25;;;;;;;3.73;1.57;;;23.80;54.80;;;;;;4948792;28;20483;-46
2022/08/21 05:16:51;;;;;;;1.93;1.77;;;23.80;54.90;;;;;;4948512;28;20814;-46
2022/08/21 05:19:17;;;;;;;2.73;1.90;;;23.70;54.80;;;;;;4947907;28;20499;-50
2022/08/21 05:21:45;;;;;;;2.63;2.07;;;23.60;55.20;;;;;;4944554;28;20444;-47
2022/08/21 05:24:11;;;;;;;1.50;1.40;;;23.60;55.60;;;;;;4946903;28;20267;-49
2022/08/21 05:26:37;;;;;;;2.07;1.87;;;23.60;55.30;;;;;;4949155;28;20459;-49
2022/08/21 05:29:03;;;;;;;8.20;6.70;;;23.50;55.50;;;;;;4929686;29;20518;-49
2022/08/21 05:31:29;;;;;;;5.27;4.37;;;23.60;55.30;;;;;;4947367;28;20462;-49
2022/08/21 05:33:55;;;;;;;5.37;4.87;;;23.60;55.10;;;;;;4946505;28;20440;-45
2022/08/21 05:36:22;;;;;;;7.70;3.40;;;23.60;55.20;;;;;;4939559;28;20206;-48
2022/08/21 05:38:47;;;;;;;2.60;2.40;;;23.60;55.00;;;;;;4949621;28;20542;-46
2022/08/21 05:41:13;;;;;;;2.87;2.67;;;23.50;55.40;;;;;;4946371;28;20499;-47
2022/08/21 05:43:39;;;;;;;2.10;2.00;;;23.50;55.50;;;;;;4951220;28;20200;-45
2022/08/21 05:46:06;;;;;;;3.40;2.63;;;23.50;55.40;;;;;;4952329;28;20204;-48
2022/08/21 05:48:32;;;;;;;2.23;2.07;;;23.40;56.10;;;;;;4953951;28;20259;-45
2022/08/21 05:51:03;;;;;;;4.20;2.07;;;23.20;56.60;;;;;;4953094;28;20878;-49
2022/08/21 05:53:29;;;;;;;3.33;3.03;;;23.20;56.80;;;;;;4954764;28;20423;-45
2022/08/21 05:55:54;;;;;;;2.80;2.60;;;23.20;56.50;;;;;;4949072;28;20447;-48
2022/08/21 05:58:22;;;;;;;3.20;2.90;;;23.20;56.60;;;;;;4951050;28;20230;-45
2022/08/21 06:00:49;;;;;;;3.23;2.77;;;23.10;56.80;;;;;;4950633;28;20199;-48
2022/08/21 06:03:20;;;;;;;2.00;1.90;;;23.10;57.10;;;;;;4952999;28;20827;-49
2022/08/21 06:05:47;;;;;;;2.47;1.80;;;23.10;57.70;;;;;;4950364;28;20443;-49
2022/08/21 06:08:14;;;;;;;2.40;2.27;;;23.10;57.50;;;;;;4950270;28;20459;-46
2022/08/21 06:10:40;;;;;;;2.20;1.80;;;23.20;57.50;;;;;;4952209;28;20447;-45
2022/08/21 06:13:05;;;;;;;2.70;2.30;;;23.20;57.60;;;;;;4952874;28;20498;-47
2022/08/21 06:15:31;;;;;;;2.20;2.10;;;23.40;57.20;;;;;;4954536;28;20582;-46
2022/08/21 06:17:56;;;;;;;2.00;1.90;;;23.20;57.20;;;;;;4948295;28;20255;-46
2022/08/21 06:20:23;;;;;;;3.00;2.13;;;23.30;57.40;;;;;;4953625;29;20283;-45
2022/08/21 06:22:48;;;;;;;2.30;2.10;;;23.40;57.40;;;;;;4953711;28;20231;-44
2022/08/21 06:25:14;;;;;;;2.90;2.70;;;23.50;57.20;;;;;;4948693;28;20455;-46
2022/08/21 06:27:40;;;;;;;2.27;2.17;;;23.70;57.10;;;;;;4950167;28;20188;-45
2022/08/21 06:30:07;;;;;;;3.43;2.30;;;23.80;56.80;;;;;;4951169;28;20223;-44
2022/08/21 06:32:33;;;;;;;2.07;1.97;;;23.90;56.70;;;;;;4952047;28;20668;-45
2022/08/21 06:34:58;;;;;;;1.70;1.60;;;24.00;56.50;;;;;;4949985;28;20444;-45
2022/08/21 06:37:24;;;;;;;2.70;2.50;;;24.10;56.40;;;;;;4952962;28;20451;-46
2022/08/21 06:39:49;;;;;;;2.50;2.30;;;23.90;56.80;;;;;;4949388;28;20248;-45
2022/08/21 06:42:17;;;;;;;2.10;2.00;;;24.00;57.20;;;;;;4950495;28;20242;-45
2022/08/21 06:44:43;;;;;;;2.90;2.70;;;24.10;56.90;;;;;;4950990;28;20209;-45
2022/08/21 06:47:09;;;;;;;3.00;2.80;;;24.30;56.90;;;;;;4949155;28;20530;-45
2022/08/21 06:49:35;;;;;;;2.40;2.10;;;24.40;56.80;;;;;;4947682;28;20534;-44
2022/08/21 06:52:01;;;;;;;2.47;2.27;;;24.50;56.50;;;;;;4951465;29;20910;-46
2022/08/21 06:54:26;;;;;;;2.77;2.57;;;24.50;56.30;;;;;;4948584;28;20482;-44
2022/08/21 06:56:52;;;;;;;2.63;2.50;;;24.60;56.70;;;;;;4951923;28;20203;-47
2022/08/21 06:59:18;;;;;;;2.70;2.50;;;24.80;56.30;;;;;;4951724;28;20491;-48
2022/08/21 07:01:44;;;;;;;2.97;2.63;;;24.90;56.10;;;;;;4949950;28;20200;-50
2022/08/21 07:04:10;;;;;;;3.30;2.57;;;24.90;56.60;;;;;;4951930;28;20206;-46
2022/08/21 07:06:36;;;;;;;3.40;2.33;;;25.00;56.70;;;;;;4953503;28;20951;-48
2022/08/21 07:09:03;;;;;;;3.10;2.30;;;25.00;56.80;;;;;;4949876;28;20436;-49
2022/08/21 07:11:29;;;;;;;2.90;2.70;;;24.90;56.90;;;;;;4949894;28;20228;-49
2022/08/21 07:13:56;;;;;;;3.40;2.40;;;24.90;57.50;;;;;;4950319;28;20507;-49
2022/08/21 07:16:22;;;;;;;3.50;2.90;;;24.90;57.80;;;;;;4949288;28;20208;-48
2022/08/21 07:18:48;;;;;;;2.97;2.67;;;24.90;57.80;;;;;;4953377;29;20498;-48
2022/08/21 07:21:15;;;;;;;3.13;2.93;;;24.90;57.80;;;;;;4949061;28;20196;-50
2022/08/21 07:23:44;;;;;;;3.07;2.87;;;24.90;56.90;;;;;;4947935;28;20474;-47
2022/08/21 07:26:11;;;;;;;3.47;3.17;;;24.80;57.10;;;;;;4949193;28;20450;-46
2022/08/21 07:28:36;;;;;;;3.00;2.80;;;24.80;56.60;;;;;;4949084;28;20530;-47
2022/08/21 07:31:03;;;;;;;2.93;2.33;;;24.90;56.20;;;;;;4952053;29;20563;-46
2022/08/21 07:33:31;;;;;;;4.10;3.37;;;25.00;56.70;;;;;;4949340;28;20199;-49
2022/08/21 07:35:56;;;;;;;6.53;3.20;;;25.00;55.80;;;;;;4952375;28;20530;-47
2022/08/21 07:38:22;;;;;;;3.53;3.23;;;25.10;54.40;;;;;;4952450;28;20594;-47
2022/08/21 07:40:50;;;;;;;3.73;3.07;;;25.10;54.20;;;;;;4953034;29;20698;-50
2022/08/21 07:43:18;;;;;;;2.60;2.40;;;25.10;54.50;;;;;;4949745;28;20453;-47
2022/08/21 07:45:45;;;;;;;3.30;2.80;;;25.20;54.30;;;;;;4953019;29;20451;-46
2022/08/21 07:48:10;;;;;;;7.00;3.77;;;25.30;53.20;;;;;;4950358;28;20451;-49
2022/08/21 07:50:36;;;;;;;5.63;3.20;;;25.30;53.10;;;;;;4951741;28;20451;-49
2022/08/21 07:53:02;;;;;;;5.00;3.30;;;25.40;52.60;;;;;;4950256;28;20236;-46
2022/08/21 07:55:28;;;;;;;3.20;2.90;;;25.30;52.00;;;;;;4952851;29;20543;-46
2022/08/21 07:57:54;;;;;;;7.47;3.60;;;25.30;53.20;;;;;;4952189;28;20428;-47
2022/08/21 08:00:24;;;;;;;4.17;3.13;;;25.40;52.70;;;;;;4952702;29;20227;-46
2022/08/21 08:02:52;;;;;;;5.63;3.67;;;25.50;52.40;;;;;;4951490;28;20227;-45
2022/08/21 08:05:21;;;;;;;7.40;3.57;;;25.60;52.70;;;;;;4952419;28;20479;-45
2022/08/21 08:07:47;;;;;;;4.23;3.90;;;25.80;52.80;;;;;;4952531;28;20486;-46
2022/08/21 08:10:13;;;;;;;4.63;3.47;;;25.90;53.00;;;;;;4951993;28;21081;-46
2022/08/21 08:12:40;;;;;;;4.27;3.87;;;26.00;52.10;;;;;;4951717;28;20240;-45
2022/08/21 08:15:08;;;;;;;7.60;4.70;;;26.10;51.80;;;;;;4950432;28;20194;-46
2022/08/21 08:17:34;;;;;;;7.70;4.27;;;26.20;51.60;;;;;;4950925;28;20462;-48
2022/08/21 08:20:03;;;;;;;5.70;4.17;;;26.30;50.80;;;;;;4951895;28;20852;-47
2022/08/21 08:22:28;;;;;;;4.23;3.70;;;26.40;49.60;;;;;;4951858;28;20283;-46
2022/08/21 08:24:55;;;;;;;8.43;4.03;;;26.50;49.40;;;;;;4949833;28;20579;-47
2022/08/21 08:27:21;;;;;;;4.20;3.80;;;26.60;48.40;;;;;;4951163;28;20591;-48
2022/08/21 08:29:48;;;;;;;7.70;4.20;;;26.70;48.80;;;;;;4949974;28;20451;-45
2022/08/21 08:32:14;;;;;;;4.27;3.87;;;26.70;48.90;;;;;;4951975;29;20435;-48
2022/08/21 08:34:40;;;;;;;9.40;5.30;;;26.80;48.60;;;;;;4951988;28;20447;-47
2022/08/21 08:37:07;;;;;;;6.07;3.87;;;26.80;47.40;;;;;;4952551;29;20195;-49
2022/08/21 08:39:33;;;;;;;4.47;4.07;;;26.90;47.10;;;;;;4951604;29;20227;-47
2022/08/21 08:42:09;;;;;;;5.07;4.27;;;27.00;46.90;;;;;;4952149;29;20474;-48
2022/08/21 08:44:35;;;;;;;4.70;4.30;;;27.10;46.80;;;;;;4949931;28;20458;-46
2022/08/21 08:47:01;;;;;;;5.57;4.80;;;27.20;46.30;;;;;;4952076;28;20478;-48
2022/08/21 08:49:40;;;;;;;6.17;4.70;;;27.20;45.80;;;;;;4950770;28;20471;-46
2022/08/21 08:52:31;;;;;;;4.90;4.40;;;27.30;46.20;;;;;;4952364;29;20199;-46
2022/08/21 08:55:30;;;;;;;6.40;4.27;;;27.40;46.60;;;;;;4951569;28;20470;-47
2022/08/21 08:57:56;;;;;;;7.37;4.37;;;27.50;46.40;;;;;;4941037;29;20448;-47
2022/08/21 09:00:23;;;;;;;7.53;4.80;;;27.50;45.80;;;;;;4949723;28;20451;-47
2022/08/21 09:02:53;;;;;;;5.90;4.57;;;27.60;45.90;;;;;;4952232;29;20459;-47
2022/08/21 09:05:26;;;;;;;6.57;4.80;;;27.80;46.00;;;;;;4949791;28;20456;-49
2022/08/21 09:08:17;;;;;;;6.80;3.90;;;27.90;45.10;;;;;;4952265;29;20908;-46
2022/08/21 09:10:57;;;;;;;7.33;4.40;;;27.90;44.90;;;;;;4948092;28;20542;-46
2022/08/21 09:13:57;;;;;;;5.50;5.00;;;28.00;45.00;;;;;;4951602;28;20567;-49
2022/08/21 09:16:38;;;;;;;5.07;4.40;;;28.20;45.50;;;;;;4951074;28;20483;-48
2022/08/21 09:20:06;;;;;;;5.40;4.27;;;28.50;44.60;;;;;;4953567;28;20554;-48
2022/08/21 09:23:09;;;;;;;5.37;4.40;;;28.60;44.30;;;;;;4865926;29;21000;-47
2022/08/21 09:25:45;;;;;;;7.00;4.27;;;28.80;44.50;;;;;;4876214;29;20465;-47
2022/08/21 09:28:14;;;;;;;4.50;4.10;;;29.00;43.40;;;;;;4939323;28;20462;-50
2022/08/21 09:30:41;;;;;;;5.57;3.57;;;29.10;42.00;;;;;;4954575;28;20454;-51
2022/08/21 09:33:07;;;;;;;4.87;4.47;;;29.10;41.90;;;;;;4953019;28;20446;-50
2022/08/21 09:35:34;;;;;;;5.10;4.07;;;29.30;42.30;;;;;;4951592;28;20510;-50
2022/08/21 09:38:06;;;;;;;4.00;3.70;;;29.30;42.00;;;;;;4951033;28;20818;-50
2022/08/21 09:40:42;;;;;;;5.23;4.10;;;29.50;41.00;;;;;;4953715;28;20485;-50
2022/08/21 09:43:13;;;;;;;7.13;4.70;;;29.70;41.40;;;;;;4951276;28;20549;-49
2022/08/21 09:45:44;;;;;;;4.13;3.73;;;29.80;40.20;;;;;;4949869;28;20808;-51
2022/08/21 09:48:15;;;;;;;5.80;3.67;;;29.90;38.90;;;;;;4948458;28;20475;-51
2022/08/21 09:50:47;;;;;;;5.30;4.00;;;30.00;36.80;;;;;;4935386;28;20462;-50
2022/08/21 09:53:30;;;;;;;4.10;3.80;;;29.90;39.10;;;;;;4949318;28;20809;-51
2022/08/21 09:58:48;;;;;;;4.10;3.57;;;30.30;38.30;;;;;;4943316;28;20858;-49
2022/08/21 10:01:20;;;;;;;6.73;3.90;;;30.50;37.70;;;;;;4954219;28;20447;-51
2022/08/21 10:03:46;;;;;;;5.77;3.63;;;30.60;36.80;;;;;;4942325;28;20479;-51
2022/08/21 10:06:25;;;;;;;5.23;3.60;;;30.70;36.80;;;;;;4944790;28;20455;-50
2022/08/21 10:08:51;;;;;;;5.10;3.73;;;30.80;36.80;;;;;;4953511;28;20444;-49
2022/08/21 10:11:23;;;;;;;6.03;3.83;;;31.00;36.10;;;;;;4951932;28;20479;-51
2022/08/21 10:14:17;;;;;;;4.70;3.60;;;31.20;36.00;;;;;;4951198;28;20979;-51
2022/08/21 10:17:10;;;;;;;5.77;3.90;;;31.30;35.20;;;;;;4943254;28;20471;-47
2022/08/21 10:20:05;;;;;;;5.67;3.63;;;31.50;34.60;;;;;;4950765;28;21025;-50
2022/08/21 10:22:39;;;;;;;5.07;3.63;;;31.80;34.50;;;;;;4952039;28;20456;-51
2022/08/21 10:25:31;;;;;;;5.97;3.40;;;31.90;35.30;;;;;;4947298;28;20490;-50
2022/08/21 10:28:36;;;;;;;5.53;3.90;;;32.10;34.40;;;;;;4947950;28;20546;-51
2022/08/21 10:31:20;;;;;;;8.40;3.60;;;32.00;34.50;;;;;;4937095;28;20589;-50
2022/08/21 10:33:54;;;;;;;4.07;3.30;;;32.10;35.00;;;;;;4950477;28;20494;-50
2022/08/21 10:36:37;;;;;;;4.90;3.33;;;32.20;34.30;;;;;;4953892;28;20494;-50
2022/08/21 10:39:19;;;;;;;5.57;4.30;;;32.30;33.00;;;;;;4951003;28;20491;-50
2022/08/21 10:41:57;;;;;;;8.00;3.40;;;32.20;32.80;;;;;;4952788;28;20436;-51
2022/08/21 10:44:49;;;;;;;5.20;3.17;;;32.20;33.60;;;;;;4953261;28;20451;-47
2022/08/21 10:47:32;;;;;;;4.90;3.50;;;32.30;33.30;;;;;;4952590;28;20444;-50
2022/08/21 10:50:15;;;;;;;6.00;4.10;;;32.50;33.40;;;;;;4946854;28;20527;-52
2022/08/21 10:53:11;;;;;;;5.93;4.07;;;32.70;34.10;;;;;;4952432;28;21011;-48
2022/08/21 10:55:47;;;;;;;5.50;3.87;;;32.90;33.10;;;;;;4951341;28;20458;-47
2022/08/21 10:58:20;;;;;;;7.33;3.77;;;33.00;32.20;;;;;;4952111;28;20458;-48
2022/08/21 11:00:51;;;;;;;5.03;3.33;;;33.30;33.00;;;;;;4948787;28;20586;-48
2022/08/21 11:03:19;;;;;;;6.30;3.30;;;33.50;31.40;;;;;;4951240;28;20414;-48
2022/08/21 11:05:51;;;;;;;7.53;4.00;;;33.70;31.60;;;;;;4950885;28;20947;-51
2022/08/21 11:08:38;;;;;;;6.13;3.70;;;33.70;31.20;;;;;;4949556;28;20529;-51
2022/08/21 11:11:05;;;;;;;8.40;3.70;;;33.90;31.70;;;;;;4952064;28;20455;-47
2022/08/21 11:14:19;;;;;;;4.10;3.20;;;33.90;31.60;;;;;;4951472;28;20487;-47
2022/08/21 11:17:00;;;;;;;3.77;3.23;;;34.10;31.90;;;;;;4931376;28;20467;-51
2022/08/21 11:19:33;;;;;;;6.20;3.70;;;34.40;30.20;;;;;;4949326;28;20487;-49
2022/08/21 11:22:02;;;;;;;6.80;4.17;;;34.50;29.40;;;;;;4952507;28;20444;-52
2022/08/21 11:24:44;;;;;;;5.00;3.27;;;34.70;30.00;;;;;;4952265;28;20538;-51
2022/08/21 11:27:25;;;;;;;3.67;3.10;;;34.90;29.80;;;;;;4951916;28;20463;-47
2022/08/21 11:29:55;;;;;;;4.97;3.70;;;35.10;29.20;;;;;;4946684;28;20522;-49
2022/08/21 11:32:42;;;;;;;4.17;3.77;;;35.10;29.30;;;;;;4952101;28;20455;-51
2022/08/21 11:35:32;;;;;;;8.13;3.10;;;35.10;28.90;;;;;;4951088;28;20478;-47
2022/08/21 11:38:04;;;;;;;5.77;3.33;;;35.00;28.90;;;;;;4952640;28;20543;-50
2022/08/21 11:40:30;;;;;;;5.03;3.60;;;34.90;28.40;;;;;;4948473;28;20494;-50
2022/08/21 11:43:12;;;;;;;3.97;3.30;;;34.80;28.20;;;;;;4950963;28;20456;-47
2022/08/21 11:45:49;;;;;;;4.47;3.30;;;34.70;28.30;;;;;;4948299;28;20223;-48
2022/08/21 11:48:15;;;;;;;7.97;3.17;;;34.60;28.30;;;;;;4950247;28;20443;-48
2022/08/21 11:50:42;;;;;;;6.90;4.03;;;34.50;27.80;;;;;;4948142;28;20451;-48
2022/08/21 11:53:11;;;;;;;4.40;3.50;;;34.40;27.70;;;;;;4951818;28;20214;-51
2022/08/21 11:56:00;;;;;;;4.40;3.23;;;34.40;27.80;;;;;;4949429;28;20448;-51
2022/08/21 11:58:43;;;;;;;4.03;3.23;;;34.50;27.70;;;;;;4948582;28;20483;-47
2022/08/21 12:01:14;;;;;;;4.17;3.13;;;34.60;27.10;;;;;;4944602;28;20580;-50
2022/08/21 12:03:51;;;;;;;3.83;3.40;;;34.80;28.00;;;;;;4952226;28;20490;-49
2022/08/21 12:06:35;;;;;;;4.80;2.80;;;34.80;26.70;;;;;;4951525;28;20524;-51
2022/08/21 12:09:10;;;;;;;4.27;3.40;;;34.80;28.10;;;;;;4939860;28;20542;-50
2022/08/21 12:11:49;;;;;;;4.23;3.80;;;34.80;27.50;;;;;;4943530;28;20504;-47
2022/08/21 12:14:18;;;;;;;3.60;3.30;;;34.80;27.20;;;;;;4942855;28;20519;-51
2022/08/21 12:16:46;;;;;;;3.30;2.90;;;34.80;26.40;;;;;;4951619;28;20634;-46
2022/08/21 12:19:24;;;;;;;4.27;3.17;;;34.90;26.60;;;;;;4947385;28;20530;-47
2022/08/21 12:21:57;;;;;;;3.30;3.00;;;35.10;26.50;;;;;;4947421;28;20798;-46
2022/08/21 12:24:46;;;;;;;4.20;2.80;;;35.20;25.40;;;;;;4949213;28;20455;-47
2022/08/21 12:27:20;;;;;;;3.17;2.40;;;35.50;25.00;;;;;;4942131;28;20470;-47
2022/08/21 12:29:59;;;;;;;4.50;2.60;;;35.30;23.60;;;;;;4950267;28;20451;-47
2022/08/21 12:32:29;;;;;;;2.70;2.27;;;35.50;24.80;;;;;;4950684;28;20479;-45
2022/08/21 12:35:01;;;;;;;3.20;2.87;;;35.60;23.80;;;;;;4949938;28;20916;-46
2022/08/21 12:37:39;;;;;;;7.00;3.20;;;35.70;24.30;;;;;;4951306;28;20459;-47
2022/08/21 12:40:23;;;;;;;3.30;2.90;;;35.90;24.70;;;;;;4946799;28;20498;-50
2022/08/21 12:42:52;;;;;;;4.27;3.73;;;36.00;25.40;;;;;;4946367;28;20530;-48
2022/08/21 12:45:41;;;;;;;5.17;3.63;;;36.20;25.50;;;;;;4948446;28;20460;-49
2022/08/21 12:48:06;;;;;;;6.07;3.40;;;36.20;25.50;;;;;;4940517;28;20455;-50
2022/08/21 12:50:51;;;;;;;5.30;3.90;;;36.20;25.40;;;;;;4943840;28;20458;-49
2022/08/21 12:53:29;;;;;;;3.33;3.03;;;36.30;25.50;;;;;;4950281;28;20294;-46
2022/08/21 12:56:00;;;;;;;4.40;3.10;;;36.20;25.70;;;;;;4956969;28;20450;-46
2022/08/21 12:58:27;;;;;;;7.50;4.00;;;36.20;25.20;;;;;;4956455;28;20506;-52
2022/08/21 13:01:04;;;;;;;3.43;3.20;;;36.30;25.80;;;;;;4955541;28;20813;-46
2022/08/21 13:03:31;;;;;;;4.30;3.17;;;36.30;25.10;;;;;;4947583;28;20458;-51
2022/08/21 13:05:58;;;;;;;5.83;3.30;;;36.30;25.30;;;;;;4953624;28;20851;-46